sensor_id;sensor_type;location;lat;lon;timestamp;P1;durP1;ratioP1;P2;durP2;ratioP2
2602;SDS011;1311;47.966;7.958;2022-09-14T00:00:45;3.30;;;3.00;;
2602;SDS011;1311;47.966;7.958;2022-09-14T00:03:13;4.17;;;3.87;;
2602;SDS011;1311;47.966;7.958;2022-09-14T00:05:41;5.00;;;3.93;;
2602;SDS011;1311;47.966;7.958;2022-09-14T00:08:08;3.60;;;3.30;;
2602;SDS011;1311;47.966;7.958;2022-09-14T00:10:36;5.83;;;3.30;;
2602;SDS011;1311;47.966;7.958;2022-09-14T00:13:04;3.87;;;3.37;;
2602;SDS011;1311;47.966;7.958;2022-09-14T00:15:33;4.00;;;3.60;;
2602;SDS011;1311;47.966;7.958;2022-09-14T00:18:02;3.93;;;3.40;;
2602;SDS011;1311;47.966;7.958;2022-09-14T00:20:30;3.77;;;3.47;;
2602;SDS011;1311;47.966;7.958;2022-09-14T00:22:57;4.00;;;3.70;;
2602;SDS011;1311;47.966;7.958;2022-09-14T00:25:24;3.50;;;3.20;;
2602;SDS011;1311;47.966;7.958;2022-09-14T00:27:52;4.10;;;3.20;;
2602;SDS011;1311;47.966;7.958;2022-09-14T00:30:19;3.50;;;3.20;;
2602;SDS011;1311;47.966;7.958;2022-09-14T00:32:47;3.40;;;3.00;;
2602;SDS011;1311;47.966;7.958;2022-09-14T00:35:15;3.07;;;2.87;;
2602;SDS011;1311;47.966;7.958;2022-09-14T00:37:44;5.43;;;3.67;;
2602;SDS011;1311;47.966;7.958;2022-09-14T00:40:13;3.40;;;3.10;;
2602;SDS011;1311;47.966;7.958;2022-09-14T00:42:40;3.20;;;3.00;;
2602;SDS011;1311;47.966;7.958;2022-09-14T00:45:10;3.53;;;2.93;;
2602;SDS011;1311;47.966;7.958;2022-09-14T00:47:40;4.00;;;2.93;;
2602;SDS011;1311;47.966;7.958;2022-09-14T00:50:07;5.43;;;2.90;;
2602;SDS011;1311;47.966;7.958;2022-09-14T00:52:37;7.30;;;3.27;;
2602;SDS011;1311;47.966;7.958;2022-09-14T00:55:09;4.10;;;3.17;;
2602;SDS011;1311;47.966;7.958;2022-09-14T00:57:38;3.90;;;3.10;;
2602;SDS011;1311;47.966;7.958;2022-09-14T01:00:08;4.83;;;3.60;;
2602;SDS011;1311;47.966;7.958;2022-09-14T01:02:36;5.33;;;3.50;;
2602;SDS011;1311;47.966;7.958;2022-09-14T01:05:04;4.50;;;3.13;;
2602;SDS011;1311;47.966;7.958;2022-09-14T01:07:38;6.07;;;3.33;;
2602;SDS011;1311;47.966;7.958;2022-09-14T01:10:13;4.70;;;3.70;;
2602;SDS011;1311;47.966;7.958;2022-09-14T01:12:56;6.47;;;3.70;;
2602;SDS011;1311;47.966;7.958;2022-09-14T01:18:23;3.83;;;3.33;;
2602;SDS011;1311;47.966;7.958;2022-09-14T01:20:55;3.90;;;3.60;;
2602;SDS011;1311;47.966;7.958;2022-09-14T01:23:26;3.70;;;3.40;;
2602;SDS011;1311;47.966;7.958;2022-09-14T01:29:09;3.77;;;3.20;;
2602;SDS011;1311;47.966;7.958;2022-09-14T01:31:42;4.93;;;3.87;;
2602;SDS011;1311;47.966;7.958;2022-09-14T01:34:15;11.07;;;3.57;;
2602;SDS011;1311;47.966;7.958;2022-09-14T01:36:48;7.10;;;2.90;;
2602;SDS011;1311;47.966;7.958;2022-09-14T01:39:16;4.53;;;3.20;;
2602;SDS011;1311;47.966;7.958;2022-09-14T01:41:45;3.43;;;3.13;;
2602;SDS011;1311;47.966;7.958;2022-09-14T01:44:15;3.43;;;3.13;;
2602;SDS011;1311;47.966;7.958;2022-09-14T01:46:46;3.53;;;3.23;;
2602;SDS011;1311;47.966;7.958;2022-09-14T01:49:18;4.20;;;3.07;;
2602;SDS011;1311;47.966;7.958;2022-09-14T01:51:49;3.60;;;3.30;;
2602;SDS011;1311;47.966;7.958;2022-09-14T01:54:22;9.30;;;2.97;;
2602;SDS011;1311;47.966;7.958;2022-09-14T01:56:55;4.60;;;3.20;;
2602;SDS011;1311;47.966;7.958;2022-09-14T01:59:26;3.57;;;3.27;;
2602;SDS011;1311;47.966;7.958;2022-09-14T02:01:58;5.30;;;3.40;;
2602;SDS011;1311;47.966;7.958;2022-09-14T02:04:30;5.00;;;3.60;;
2602;SDS011;1311;47.966;7.958;2022-09-14T02:07:01;3.93;;;3.03;;
2602;SDS011;1311;47.966;7.958;2022-09-14T02:09:28;3.27;;;2.97;;
2602;SDS011;1311;47.966;7.958;2022-09-14T02:11:55;3.37;;;3.07;;
2602;SDS011;1311;47.966;7.958;2022-09-14T02:14:26;4.40;;;3.13;;
2602;SDS011;1311;47.966;7.958;2022-09-14T02:16:53;4.37;;;2.90;;
2602;SDS011;1311;47.966;7.958;2022-09-14T02:19:20;6.10;;;2.83;;
2602;SDS011;1311;47.966;7.958;2022-09-14T02:21:48;3.47;;;2.77;;
2602;SDS011;1311;47.966;7.958;2022-09-14T02:24:15;4.10;;;3.00;;
2602;SDS011;1311;47.966;7.958;2022-09-14T02:26:43;7.27;;;2.97;;
2602;SDS011;1311;47.966;7.958;2022-09-14T02:29:11;4.50;;;3.20;;
2602;SDS011;1311;47.966;7.958;2022-09-14T02:31:43;6.60;;;3.50;;
2602;SDS011;1311;47.966;7.958;2022-09-14T02:34:20;3.90;;;2.90;;
2602;SDS011;1311;47.966;7.958;2022-09-14T02:36:55;4.73;;;3.30;;
2602;SDS011;1311;47.966;7.958;2022-09-14T02:39:31;5.03;;;3.40;;
2602;SDS011;1311;47.966;7.958;2022-09-14T02:42:06;4.23;;;3.60;;
2602;SDS011;1311;47.966;7.958;2022-09-14T02:44:41;4.80;;;3.40;;
2602;SDS011;1311;47.966;7.958;2022-09-14T02:47:14;3.67;;;3.37;;
2602;SDS011;1311;47.966;7.958;2022-09-14T02:49:47;4.67;;;3.53;;
2602;SDS011;1311;47.966;7.958;2022-09-14T02:52:21;5.07;;;3.70;;
2602;SDS011;1311;47.966;7.958;2022-09-14T02:54:55;3.90;;;3.60;;
2602;SDS011;1311;47.966;7.958;2022-09-14T02:57:23;3.80;;;3.50;;
2602;SDS011;1311;47.966;7.958;2022-09-14T02:59:52;4.33;;;3.53;;
2602;SDS011;1311;47.966;7.958;2022-09-14T03:02:20;3.63;;;3.33;;
2602;SDS011;1311;47.966;7.958;2022-09-14T03:04:47;3.70;;;3.40;;
2602;SDS011;1311;47.966;7.958;2022-09-14T03:07:14;3.87;;;3.50;;
2602;SDS011;1311;47.966;7.958;2022-09-14T03:09:41;3.17;;;2.87;;
2602;SDS011;1311;47.966;7.958;2022-09-14T03:12:08;3.30;;;2.70;;
2602;SDS011;1311;47.966;7.958;2022-09-14T03:14:35;6.00;;;3.27;;
2602;SDS011;1311;47.966;7.958;2022-09-14T03:17:02;4.23;;;3.07;;
2602;SDS011;1311;47.966;7.958;2022-09-14T03:19:30;3.00;;;2.50;;
2602;SDS011;1311;47.966;7.958;2022-09-14T03:21:57;6.57;;;3.23;;
2602;SDS011;1311;47.966;7.958;2022-09-14T03:24:24;3.90;;;3.13;;
2602;SDS011;1311;47.966;7.958;2022-09-14T03:26:51;6.03;;;2.73;;
2602;SDS011;1311;47.966;7.958;2022-09-14T03:29:18;3.30;;;2.33;;
2602;SDS011;1311;47.966;7.958;2022-09-14T03:31:44;4.30;;;2.70;;
2602;SDS011;1311;47.966;7.958;2022-09-14T03:34:11;3.43;;;3.10;;
2602;SDS011;1311;47.966;7.958;2022-09-14T03:36:40;2.90;;;2.60;;
2602;SDS011;1311;47.966;7.958;2022-09-14T03:39:07;2.30;;;2.07;;
2602;SDS011;1311;47.966;7.958;2022-09-14T03:41:33;3.70;;;2.53;;
2602;SDS011;1311;47.966;7.958;2022-09-14T03:44:01;2.73;;;2.27;;
2602;SDS011;1311;47.966;7.958;2022-09-14T03:46:28;3.07;;;2.40;;
2602;SDS011;1311;47.966;7.958;2022-09-14T03:48:55;4.43;;;2.27;;
2602;SDS011;1311;47.966;7.958;2022-09-14T03:51:22;3.70;;;1.90;;
2602;SDS011;1311;47.966;7.958;2022-09-14T03:53:51;2.60;;;2.10;;
2602;SDS011;1311;47.966;7.958;2022-09-14T03:56:19;2.87;;;2.67;;
2602;SDS011;1311;47.966;7.958;2022-09-14T03:58:48;4.70;;;2.43;;
2602;SDS011;1311;47.966;7.958;2022-09-14T04:01:16;2.93;;;2.63;;
2602;SDS011;1311;47.966;7.958;2022-09-14T04:03:44;2.87;;;2.30;;
2602;SDS011;1311;47.966;7.958;2022-09-14T04:06:11;3.73;;;2.67;;
2602;SDS011;1311;47.966;7.958;2022-09-14T04:08:38;4.40;;;3.17;;
2602;SDS011;1311;47.966;7.958;2022-09-14T04:11:08;4.20;;;2.70;;
2602;SDS011;1311;47.966;7.958;2022-09-14T04:13:36;3.33;;;2.40;;
2602;SDS011;1311;47.966;7.958;2022-09-14T04:16:03;4.63;;;3.07;;
2602;SDS011;1311;47.966;7.958;2022-09-14T04:18:30;3.47;;;3.17;;
2602;SDS011;1311;47.966;7.958;2022-09-14T04:20:58;3.40;;;3.10;;
2602;SDS011;1311;47.966;7.958;2022-09-14T04:23:26;3.20;;;2.90;;
2602;SDS011;1311;47.966;7.958;2022-09-14T04:25:54;3.83;;;3.00;;
2602;SDS011;1311;47.966;7.958;2022-09-14T04:28:22;3.63;;;2.93;;
2602;SDS011;1311;47.966;7.958;2022-09-14T04:30:56;4.17;;;3.00;;
2602;SDS011;1311;47.966;7.958;2022-09-14T04:33:24;4.30;;;3.20;;
2602;SDS011;1311;47.966;7.958;2022-09-14T04:36:05;5.40;;;2.90;;
2602;SDS011;1311;47.966;7.958;2022-09-14T04:38:34;4.50;;;2.63;;
2602;SDS011;1311;47.966;7.958;2022-09-14T04:41:03;3.00;;;2.40;;
2602;SDS011;1311;47.966;7.958;2022-09-14T04:43:32;4.30;;;2.57;;
2602;SDS011;1311;47.966;7.958;2022-09-14T04:46:00;7.53;;;3.10;;
2602;SDS011;1311;47.966;7.958;2022-09-14T04:48:27;3.33;;;3.03;;
2602;SDS011;1311;47.966;7.958;2022-09-14T04:50:59;3.67;;;3.20;;
2602;SDS011;1311;47.966;7.958;2022-09-14T04:53:26;4.03;;;3.13;;
2602;SDS011;1311;47.966;7.958;2022-09-14T04:55:57;5.23;;;3.03;;
2602;SDS011;1311;47.966;7.958;2022-09-14T04:58:25;5.63;;;2.80;;
2602;SDS011;1311;47.966;7.958;2022-09-14T05:00:54;3.10;;;2.80;;
2602;SDS011;1311;47.966;7.958;2022-09-14T05:03:26;3.23;;;3.00;;
2602;SDS011;1311;47.966;7.958;2022-09-14T05:05:53;4.00;;;2.93;;
2602;SDS011;1311;47.966;7.958;2022-09-14T05:08:20;5.03;;;3.00;;
2602;SDS011;1311;47.966;7.958;2022-09-14T05:10:47;4.00;;;3.23;;
2602;SDS011;1311;47.966;7.958;2022-09-14T05:13:14;5.43;;;3.43;;
2602;SDS011;1311;47.966;7.958;2022-09-14T05:15:41;6.07;;;3.23;;
2602;SDS011;1311;47.966;7.958;2022-09-14T05:18:10;3.40;;;3.10;;
2602;SDS011;1311;47.966;7.958;2022-09-14T05:20:37;5.43;;;2.87;;
2602;SDS011;1311;47.966;7.958;2022-09-14T05:23:04;4.10;;;2.73;;
2602;SDS011;1311;47.966;7.958;2022-09-14T05:25:30;6.27;;;3.00;;
2602;SDS011;1311;47.966;7.958;2022-09-14T05:27:57;3.67;;;3.10;;
2602;SDS011;1311;47.966;7.958;2022-09-14T05:30:25;5.47;;;3.67;;
2602;SDS011;1311;47.966;7.958;2022-09-14T05:32:52;3.60;;;3.30;;
2602;SDS011;1311;47.966;7.958;2022-09-14T05:35:20;3.47;;;3.17;;
2602;SDS011;1311;47.966;7.958;2022-09-14T05:37:46;5.80;;;3.20;;
2602;SDS011;1311;47.966;7.958;2022-09-14T05:40:14;3.73;;;3.43;;
2602;SDS011;1311;47.966;7.958;2022-09-14T05:42:41;4.40;;;3.20;;
2602;SDS011;1311;47.966;7.958;2022-09-14T05:45:08;6.33;;;2.90;;
2602;SDS011;1311;47.966;7.958;2022-09-14T05:47:35;3.87;;;3.40;;
2602;SDS011;1311;47.966;7.958;2022-09-14T05:50:02;4.43;;;3.73;;
2602;SDS011;1311;47.966;7.958;2022-09-14T05:52:31;3.73;;;3.27;;
2602;SDS011;1311;47.966;7.958;2022-09-14T05:54:58;3.03;;;2.83;;
2602;SDS011;1311;47.966;7.958;2022-09-14T05:57:25;3.60;;;3.30;;
2602;SDS011;1311;47.966;7.958;2022-09-14T05:59:52;4.27;;;3.87;;
2602;SDS011;1311;47.966;7.958;2022-09-14T06:02:19;4.20;;;3.80;;
2602;SDS011;1311;47.966;7.958;2022-09-14T06:04:46;7.23;;;3.93;;
2602;SDS011;1311;47.966;7.958;2022-09-14T06:07:14;3.87;;;3.50;;
2602;SDS011;1311;47.966;7.958;2022-09-14T06:09:42;3.70;;;3.30;;
2602;SDS011;1311;47.966;7.958;2022-09-14T06:12:09;3.50;;;3.17;;
2602;SDS011;1311;47.966;7.958;2022-09-14T06:14:38;4.20;;;3.17;;
2602;SDS011;1311;47.966;7.958;2022-09-14T06:17:05;5.47;;;3.40;;
2602;SDS011;1311;47.966;7.958;2022-09-14T06:19:32;6.50;;;3.50;;
2602;SDS011;1311;47.966;7.958;2022-09-14T06:21:59;3.70;;;3.40;;
2602;SDS011;1311;47.966;7.958;2022-09-14T06:24:26;4.10;;;3.70;;
2602;SDS011;1311;47.966;7.958;2022-09-14T06:26:55;4.70;;;3.03;;
2602;SDS011;1311;47.966;7.958;2022-09-14T06:29:21;4.13;;;3.50;;
2602;SDS011;1311;47.966;7.958;2022-09-14T06:31:48;4.30;;;3.40;;
2602;SDS011;1311;47.966;7.958;2022-09-14T06:34:15;3.50;;;3.17;;
2602;SDS011;1311;47.966;7.958;2022-09-14T06:36:42;3.63;;;3.10;;
2602;SDS011;1311;47.966;7.958;2022-09-14T06:39:09;6.73;;;3.40;;
2602;SDS011;1311;47.966;7.958;2022-09-14T06:41:36;5.50;;;3.37;;
2602;SDS011;1311;47.966;7.958;2022-09-14T06:44:05;6.10;;;2.87;;
2602;SDS011;1311;47.966;7.958;2022-09-14T06:46:32;4.47;;;3.10;;
2602;SDS011;1311;47.966;7.958;2022-09-14T06:49:02;5.10;;;3.10;;
2602;SDS011;1311;47.966;7.958;2022-09-14T06:51:30;3.63;;;3.27;;
2602;SDS011;1311;47.966;7.958;2022-09-14T06:53:59;3.60;;;3.30;;
2602;SDS011;1311;47.966;7.958;2022-09-14T06:56:30;3.27;;;2.97;;
2602;SDS011;1311;47.966;7.958;2022-09-14T06:58:58;3.10;;;2.80;;
2602;SDS011;1311;47.966;7.958;2022-09-14T07:01:26;4.03;;;3.40;;
2602;SDS011;1311;47.966;7.958;2022-09-14T07:03:53;3.47;;;3.17;;
2602;SDS011;1311;47.966;7.958;2022-09-14T07:06:21;6.43;;;3.50;;
2602;SDS011;1311;47.966;7.958;2022-09-14T07:08:51;4.50;;;3.37;;
2602;SDS011;1311;47.966;7.958;2022-09-14T07:11:19;3.83;;;3.40;;
2602;SDS011;1311;47.966;7.958;2022-09-14T07:13:48;7.03;;;3.93;;
2602;SDS011;1311;47.966;7.958;2022-09-14T07:16:15;4.50;;;3.57;;
2602;SDS011;1311;47.966;7.958;2022-09-14T07:18:43;4.40;;;4.00;;
2602;SDS011;1311;47.966;7.958;2022-09-14T07:21:12;7.93;;;4.70;;
2602;SDS011;1311;47.966;7.958;2022-09-14T07:23:40;4.60;;;4.20;;
2602;SDS011;1311;47.966;7.958;2022-09-14T07:26:09;4.80;;;4.40;;
2602;SDS011;1311;47.966;7.958;2022-09-14T07:28:37;4.50;;;4.10;;
2602;SDS011;1311;47.966;7.958;2022-09-14T07:31:12;4.50;;;3.87;;
2602;SDS011;1311;47.966;7.958;2022-09-14T07:33:40;4.73;;;3.57;;
2602;SDS011;1311;47.966;7.958;2022-09-14T07:36:09;3.50;;;3.17;;
2602;SDS011;1311;47.966;7.958;2022-09-14T07:38:37;4.93;;;3.53;;
2602;SDS011;1311;47.966;7.958;2022-09-14T07:41:04;5.47;;;3.30;;
2602;SDS011;1311;47.966;7.958;2022-09-14T07:43:31;4.53;;;4.13;;
2602;SDS011;1311;47.966;7.958;2022-09-14T07:46:00;5.03;;;3.80;;
2602;SDS011;1311;47.966;7.958;2022-09-14T07:48:27;4.00;;;3.40;;
2602;SDS011;1311;47.966;7.958;2022-09-14T07:51:01;4.60;;;3.67;;
2602;SDS011;1311;47.966;7.958;2022-09-14T07:53:30;4.93;;;4.20;;
2602;SDS011;1311;47.966;7.958;2022-09-14T07:55:57;7.63;;;3.87;;
2602;SDS011;1311;47.966;7.958;2022-09-14T07:58:25;5.83;;;3.60;;
2602;SDS011;1311;47.966;7.958;2022-09-14T08:00:56;4.73;;;3.57;;
2602;SDS011;1311;47.966;7.958;2022-09-14T08:03:23;6.77;;;3.83;;
2602;SDS011;1311;47.966;7.958;2022-09-14T08:05:56;4.20;;;3.57;;
2602;SDS011;1311;47.966;7.958;2022-09-14T08:08:26;5.63;;;4.00;;
2602;SDS011;1311;47.966;7.958;2022-09-14T08:11:01;3.63;;;3.33;;
2602;SDS011;1311;47.966;7.958;2022-09-14T08:13:29;4.67;;;3.73;;
2602;SDS011;1311;47.966;7.958;2022-09-14T08:15:56;5.03;;;3.70;;
2602;SDS011;1311;47.966;7.958;2022-09-14T08:18:24;3.67;;;3.37;;
2602;SDS011;1311;47.966;7.958;2022-09-14T08:20:51;4.20;;;3.13;;
2602;SDS011;1311;47.966;7.958;2022-09-14T08:23:18;6.07;;;4.00;;
2602;SDS011;1311;47.966;7.958;2022-09-14T08:25:45;8.40;;;3.50;;
2602;SDS011;1311;47.966;7.958;2022-09-14T08:28:13;3.53;;;3.23;;
2602;SDS011;1311;47.966;7.958;2022-09-14T08:30:40;4.93;;;3.27;;
2602;SDS011;1311;47.966;7.958;2022-09-14T08:33:07;4.60;;;3.20;;
2602;SDS011;1311;47.966;7.958;2022-09-14T08:35:40;4.63;;;3.57;;
2602;SDS011;1311;47.966;7.958;2022-09-14T08:38:07;3.33;;;2.97;;
2602;SDS011;1311;47.966;7.958;2022-09-14T08:40:41;4.63;;;3.70;;
2602;SDS011;1311;47.966;7.958;2022-09-14T08:43:09;3.50;;;2.90;;
2602;SDS011;1311;47.966;7.958;2022-09-14T08:45:38;3.67;;;3.03;;
2602;SDS011;1311;47.966;7.958;2022-09-14T08:48:07;4.70;;;3.10;;
2602;SDS011;1311;47.966;7.958;2022-09-14T08:50:41;4.60;;;2.60;;
2602;SDS011;1311;47.966;7.958;2022-09-14T08:53:08;7.53;;;2.73;;
2602;SDS011;1311;47.966;7.958;2022-09-14T08:55:36;5.57;;;2.30;;
2602;SDS011;1311;47.966;7.958;2022-09-14T08:58:12;4.60;;;2.63;;
2602;SDS011;1311;47.966;7.958;2022-09-14T09:00:48;3.70;;;2.40;;
2602;SDS011;1311;47.966;7.958;2022-09-14T09:06:25;2.93;;;2.63;;
2602;SDS011;1311;47.966;7.958;2022-09-14T09:09:01;2.47;;;2.27;;
2602;SDS011;1311;47.966;7.958;2022-09-14T09:11:36;5.27;;;2.70;;
2602;SDS011;1311;47.966;7.958;2022-09-14T09:14:08;2.73;;;2.10;;
2602;SDS011;1311;47.966;7.958;2022-09-14T09:16:43;3.20;;;2.40;;
2602;SDS011;1311;47.966;7.958;2022-09-14T09:19:16;3.97;;;2.60;;
2602;SDS011;1311;47.966;7.958;2022-09-14T09:21:46;4.30;;;2.67;;
2602;SDS011;1311;47.966;7.958;2022-09-14T09:24:18;4.23;;;2.30;;
2602;SDS011;1311;47.966;7.958;2022-09-14T09:26:49;4.90;;;2.57;;
2602;SDS011;1311;47.966;7.958;2022-09-14T09:29:16;2.97;;;2.20;;
2602;SDS011;1311;47.966;7.958;2022-09-14T09:31:45;5.17;;;2.33;;
2602;SDS011;1311;47.966;7.958;2022-09-14T09:34:15;6.10;;;2.70;;
2602;SDS011;1311;47.966;7.958;2022-09-14T09:36:45;3.30;;;2.37;;
2602;SDS011;1311;47.966;7.958;2022-09-14T09:39:13;4.00;;;2.33;;
2602;SDS011;1311;47.966;7.958;2022-09-14T09:41:42;5.27;;;2.60;;
2602;SDS011;1311;47.966;7.958;2022-09-14T09:44:11;3.37;;;2.20;;
2602;SDS011;1311;47.966;7.958;2022-09-14T09:46:39;3.30;;;2.37;;
2602;SDS011;1311;47.966;7.958;2022-09-14T09:49:16;3.03;;;2.77;;
2602;SDS011;1311;47.966;7.958;2022-09-14T09:51:45;5.53;;;2.30;;
2602;SDS011;1311;47.966;7.958;2022-09-14T09:56:58;2.80;;;2.10;;
2602;SDS011;1311;47.966;7.958;2022-09-14T09:59:28;3.80;;;2.70;;
2602;SDS011;1311;47.966;7.958;2022-09-14T10:04:56;6.20;;;2.50;;
2602;SDS011;1311;47.966;7.958;2022-09-14T10:07:24;4.07;;;2.80;;
2602;SDS011;1311;47.966;7.958;2022-09-14T10:09:56;5.20;;;2.40;;
2602;SDS011;1311;47.966;7.958;2022-09-14T10:12:24;3.07;;;2.60;;
2602;SDS011;1311;47.966;7.958;2022-09-14T10:15:02;3.00;;;2.50;;
2602;SDS011;1311;47.966;7.958;2022-09-14T10:17:34;5.63;;;2.87;;
2602;SDS011;1311;47.966;7.958;2022-09-14T10:20:02;2.37;;;2.10;;
2602;SDS011;1311;47.966;7.958;2022-09-14T10:22:30;2.83;;;2.17;;
2602;SDS011;1311;47.966;7.958;2022-09-14T10:24:59;4.50;;;2.20;;
2602;SDS011;1311;47.966;7.958;2022-09-14T10:27:33;2.37;;;1.97;;
2602;SDS011;1311;47.966;7.958;2022-09-14T10:30:06;3.00;;;2.00;;
2602;SDS011;1311;47.966;7.958;2022-09-14T10:32:40;4.30;;;2.30;;
2602;SDS011;1311;47.966;7.958;2022-09-14T10:35:13;5.53;;;2.20;;
2602;SDS011;1311;47.966;7.958;2022-09-14T10:37:45;2.40;;;2.20;;
2602;SDS011;1311;47.966;7.958;2022-09-14T10:40:23;2.50;;;2.00;;
2602;SDS011;1311;47.966;7.958;2022-09-14T10:43:01;3.50;;;2.50;;
2602;SDS011;1311;47.966;7.958;2022-09-14T10:45:35;3.90;;;2.30;;
2602;SDS011;1311;47.966;7.958;2022-09-14T10:48:29;5.07;;;2.80;;
2602;SDS011;1311;47.966;7.958;2022-09-14T10:51:13;8.67;;;2.77;;
2602;SDS011;1311;47.966;7.958;2022-09-14T10:54:00;3.77;;;2.50;;
2602;SDS011;1311;47.966;7.958;2022-09-14T10:56:41;3.93;;;2.70;;
2602;SDS011;1311;47.966;7.958;2022-09-14T10:59:20;3.40;;;2.63;;
2602;SDS011;1311;47.966;7.958;2022-09-14T11:01:59;6.70;;;3.10;;
2602;SDS011;1311;47.966;7.958;2022-09-14T11:04:45;3.53;;;3.23;;
2602;SDS011;1311;47.966;7.958;2022-09-14T11:07:24;4.90;;;3.20;;
2602;SDS011;1311;47.966;7.958;2022-09-14T11:09:59;4.13;;;2.77;;
2602;SDS011;1311;47.966;7.958;2022-09-14T11:12:35;3.73;;;3.23;;
2602;SDS011;1311;47.966;7.958;2022-09-14T11:15:10;5.30;;;3.30;;
2602;SDS011;1311;47.966;7.958;2022-09-14T11:17:49;5.13;;;3.50;;
2602;SDS011;1311;47.966;7.958;2022-09-14T11:20:29;4.87;;;2.70;;
2602;SDS011;1311;47.966;7.958;2022-09-14T11:23:09;3.87;;;2.67;;
2602;SDS011;1311;47.966;7.958;2022-09-14T11:25:46;6.67;;;3.20;;
2602;SDS011;1311;47.966;7.958;2022-09-14T11:28:18;3.30;;;2.37;;
2602;SDS011;1311;47.966;7.958;2022-09-14T11:30:49;4.13;;;3.10;;
2602;SDS011;1311;47.966;7.958;2022-09-14T11:33:20;5.57;;;2.60;;
2602;SDS011;1311;47.966;7.958;2022-09-14T11:35:53;2.77;;;2.33;;
2602;SDS011;1311;47.966;7.958;2022-09-14T11:38:24;2.70;;;2.50;;
2602;SDS011;1311;47.966;7.958;2022-09-14T11:40:55;3.50;;;2.80;;
2602;SDS011;1311;47.966;7.958;2022-09-14T11:43:27;2.90;;;2.60;;
2602;SDS011;1311;47.966;7.958;2022-09-14T11:45:59;5.33;;;2.43;;
2602;SDS011;1311;47.966;7.958;2022-09-14T11:48:36;5.70;;;3.30;;
2602;SDS011;1311;47.966;7.958;2022-09-14T11:51:08;4.30;;;3.47;;
2602;SDS011;1311;47.966;7.958;2022-09-14T11:53:39;5.50;;;3.30;;
2602;SDS011;1311;47.966;7.958;2022-09-14T11:56:13;4.97;;;3.37;;
2602;SDS011;1311;47.966;7.958;2022-09-14T11:58:48;4.30;;;2.77;;
2602;SDS011;1311;47.966;7.958;2022-09-14T12:04:07;4.63;;;2.73;;
2602;SDS011;1311;47.966;7.958;2022-09-14T12:06:51;4.10;;;3.07;;
2602;SDS011;1311;47.966;7.958;2022-09-14T12:12:37;3.70;;;2.40;;
2602;SDS011;1311;47.966;7.958;2022-09-14T12:15:15;2.77;;;2.57;;
2602;SDS011;1311;47.966;7.958;2022-09-14T12:18:13;4.27;;;2.60;;
2602;SDS011;1311;47.966;7.958;2022-09-14T12:20:47;4.90;;;2.80;;
2602;SDS011;1311;47.966;7.958;2022-09-14T12:23:23;5.70;;;2.80;;
2602;SDS011;1311;47.966;7.958;2022-09-14T12:26:00;3.80;;;2.60;;
2602;SDS011;1311;47.966;7.958;2022-09-14T12:28:52;3.13;;;2.43;;
2602;SDS011;1311;47.966;7.958;2022-09-14T12:34:26;4.60;;;2.63;;
2602;SDS011;1311;47.966;7.958;2022-09-14T12:46:29;2.87;;;2.33;;
2602;SDS011;1311;47.966;7.958;2022-09-14T12:49:02;4.30;;;2.67;;
2602;SDS011;1311;47.966;7.958;2022-09-14T12:51:41;5.50;;;2.73;;
2602;SDS011;1311;47.966;7.958;2022-09-14T12:54:16;5.03;;;2.90;;
2602;SDS011;1311;47.966;7.958;2022-09-14T12:56:54;4.73;;;2.87;;
2602;SDS011;1311;47.966;7.958;2022-09-14T12:59:30;3.63;;;3.03;;
2602;SDS011;1311;47.966;7.958;2022-09-14T13:02:32;3.30;;;3.00;;
2602;SDS011;1311;47.966;7.958;2022-09-14T13:05:22;4.10;;;3.00;;
2602;SDS011;1311;47.966;7.958;2022-09-14T13:07:50;5.20;;;2.70;;
2602;SDS011;1311;47.966;7.958;2022-09-14T13:10:19;4.60;;;2.97;;
2602;SDS011;1311;47.966;7.958;2022-09-14T13:12:51;2.93;;;2.60;;
2602;SDS011;1311;47.966;7.958;2022-09-14T13:15:19;3.37;;;2.90;;
2602;SDS011;1311;47.966;7.958;2022-09-14T13:17:54;7.50;;;2.87;;
2602;SDS011;1311;47.966;7.958;2022-09-14T13:20:22;3.77;;;2.70;;
2602;SDS011;1311;47.966;7.958;2022-09-14T13:22:49;5.70;;;3.50;;
2602;SDS011;1311;47.966;7.958;2022-09-14T13:25:24;4.53;;;1.93;;
2602;SDS011;1311;47.966;7.958;2022-09-14T13:27:55;3.80;;;1.73;;
2602;SDS011;1311;47.966;7.958;2022-09-14T13:30:23;2.10;;;1.70;;
2602;SDS011;1311;47.966;7.958;2022-09-14T13:32:52;6.50;;;1.90;;
2602;SDS011;1311;47.966;7.958;2022-09-14T13:35:26;4.67;;;2.10;;
2602;SDS011;1311;47.966;7.958;2022-09-14T13:37:55;1.83;;;1.60;;
2602;SDS011;1311;47.966;7.958;2022-09-14T13:40:24;2.40;;;1.70;;
2602;SDS011;1311;47.966;7.958;2022-09-14T13:42:53;1.60;;;1.50;;
2602;SDS011;1311;47.966;7.958;2022-09-14T13:45:22;2.87;;;1.30;;
2602;SDS011;1311;47.966;7.958;2022-09-14T13:47:49;2.87;;;1.70;;
2602;SDS011;1311;47.966;7.958;2022-09-14T13:50:17;3.60;;;1.37;;
2602;SDS011;1311;47.966;7.958;2022-09-14T13:52:45;1.80;;;1.20;;
2602;SDS011;1311;47.966;7.958;2022-09-14T13:55:16;3.40;;;1.27;;
2602;SDS011;1311;47.966;7.958;2022-09-14T13:58:09;1.20;;;1.10;;
2602;SDS011;1311;47.966;7.958;2022-09-14T14:00:45;1.47;;;1.37;;
2602;SDS011;1311;47.966;7.958;2022-09-14T14:03:23;1.90;;;1.07;;
2602;SDS011;1311;47.966;7.958;2022-09-14T14:05:53;2.43;;;1.10;;
2602;SDS011;1311;47.966;7.958;2022-09-14T14:08:24;1.67;;;1.10;;
2602;SDS011;1311;47.966;7.958;2022-09-14T14:10:53;1.00;;;0.90;;
2602;SDS011;1311;47.966;7.958;2022-09-14T14:13:25;1.50;;;0.77;;
2602;SDS011;1311;47.966;7.958;2022-09-14T14:15:53;1.10;;;1.00;;
2602;SDS011;1311;47.966;7.958;2022-09-14T14:18:38;1.33;;;1.00;;
2602;SDS011;1311;47.966;7.958;2022-09-14T14:21:13;1.93;;;0.80;;
2602;SDS011;1311;47.966;7.958;2022-09-14T14:23:47;1.50;;;1.30;;
2602;SDS011;1311;47.966;7.958;2022-09-14T14:26:16;2.60;;;1.30;;
2602;SDS011;1311;47.966;7.958;2022-09-14T14:28:46;1.47;;;1.13;;
2602;SDS011;1311;47.966;7.958;2022-09-14T14:31:13;1.73;;;1.50;;
2602;SDS011;1311;47.966;7.958;2022-09-14T14:33:43;1.30;;;1.07;;
2602;SDS011;1311;47.966;7.958;2022-09-14T14:36:11;3.77;;;1.40;;
2602;SDS011;1311;47.966;7.958;2022-09-14T14:38:39;2.17;;;1.10;;
2602;SDS011;1311;47.966;7.958;2022-09-14T14:41:07;1.10;;;1.00;;
2602;SDS011;1311;47.966;7.958;2022-09-14T14:43:38;1.40;;;1.30;;
2602;SDS011;1311;47.966;7.958;2022-09-14T14:46:08;1.10;;;1.00;;
2602;SDS011;1311;47.966;7.958;2022-09-14T14:48:35;2.93;;;1.20;;
2602;SDS011;1311;47.966;7.958;2022-09-14T14:51:02;1.90;;;1.23;;
2602;SDS011;1311;47.966;7.958;2022-09-14T14:53:29;4.13;;;1.00;;
2602;SDS011;1311;47.966;7.958;2022-09-14T14:55:56;2.00;;;1.23;;
2602;SDS011;1311;47.966;7.958;2022-09-14T14:58:23;1.90;;;1.07;;
2602;SDS011;1311;47.966;7.958;2022-09-14T15:00:51;3.67;;;1.00;;
2602;SDS011;1311;47.966;7.958;2022-09-14T15:03:19;1.63;;;1.03;;
2602;SDS011;1311;47.966;7.958;2022-09-14T15:05:46;1.80;;;1.00;;
2602;SDS011;1311;47.966;7.958;2022-09-14T15:08:15;3.03;;;1.07;;
2602;SDS011;1311;47.966;7.958;2022-09-14T15:10:44;2.77;;;1.00;;
2602;SDS011;1311;47.966;7.958;2022-09-14T15:13:14;1.33;;;0.90;;
2602;SDS011;1311;47.966;7.958;2022-09-14T15:15:43;1.20;;;1.10;;
2602;SDS011;1311;47.966;7.958;2022-09-14T15:18:25;1.27;;;0.83;;
2602;SDS011;1311;47.966;7.958;2022-09-14T15:20:53;1.23;;;0.80;;
2602;SDS011;1311;47.966;7.958;2022-09-14T15:23:20;2.10;;;1.10;;
2602;SDS011;1311;47.966;7.958;2022-09-14T15:25:49;2.40;;;1.30;;
2602;SDS011;1311;47.966;7.958;2022-09-14T15:28:17;1.93;;;1.33;;
2602;SDS011;1311;47.966;7.958;2022-09-14T15:30:44;2.63;;;1.00;;
2602;SDS011;1311;47.966;7.958;2022-09-14T15:33:12;1.40;;;1.00;;
2602;SDS011;1311;47.966;7.958;2022-09-14T15:35:40;1.83;;;1.03;;
2602;SDS011;1311;47.966;7.958;2022-09-14T15:38:07;1.60;;;0.90;;
2602;SDS011;1311;47.966;7.958;2022-09-14T15:40:34;1.63;;;1.20;;
2602;SDS011;1311;47.966;7.958;2022-09-14T15:43:01;1.77;;;0.90;;
2602;SDS011;1311;47.966;7.958;2022-09-14T15:45:28;2.77;;;1.30;;
2602;SDS011;1311;47.966;7.958;2022-09-14T15:47:55;1.70;;;1.37;;
2602;SDS011;1311;47.966;7.958;2022-09-14T15:50:22;1.50;;;1.40;;
2602;SDS011;1311;47.966;7.958;2022-09-14T15:52:51;3.10;;;1.40;;
2602;SDS011;1311;47.966;7.958;2022-09-14T15:55:17;2.63;;;1.40;;
2602;SDS011;1311;47.966;7.958;2022-09-14T15:57:45;2.57;;;1.20;;
2602;SDS011;1311;47.966;7.958;2022-09-14T16:00:12;2.03;;;1.40;;
2602;SDS011;1311;47.966;7.958;2022-09-14T16:02:39;1.27;;;1.07;;
2602;SDS011;1311;47.966;7.958;2022-09-14T16:05:07;1.47;;;1.37;;
2602;SDS011;1311;47.966;7.958;2022-09-14T16:07:34;1.47;;;1.37;;